Terminal Aerodrome Forecast
Issued by NWS

Home | Current Version | Previous Version | Text Only | Print | Product List | Glossary On
Versions: 1 2 3 4 5 6 7 8 9 10 11 12 13
833
FTUS44 KBMX 271730
TAFTOI
TAF
KTOI 271730Z 2718/2818 13008G16KT P6SM SCT045 SCT250
     FM280000 11004KT P6SM SCT045 SCT250=

USA.gov is the U.S. government's official web portal to all federal, state and local government web resources and services.